sensor_id;sensor_type;location;lat;lon;timestamp;P1;durP1;ratioP1;P2;durP2;ratioP2
22849;SDS011;11591;44.792;10.358;2023-04-24T00:00:01;6.30;;;2.80;;
22849;SDS011;11591;44.792;10.358;2023-04-24T00:02:30;4.78;;;2.67;;
22849;SDS011;11591;44.792;10.358;2023-04-24T00:04:57;6.53;;;2.88;;
22849;SDS011;11591;44.792;10.358;2023-04-24T00:07:30;5.53;;;2.60;;
22849;SDS011;11591;44.792;10.358;2023-04-24T00:09:57;5.20;;;2.72;;
22849;SDS011;11591;44.792;10.358;2023-04-24T00:12:23;4.65;;;2.50;;
22849;SDS011;11591;44.792;10.358;2023-04-24T00:14:49;4.32;;;2.50;;
22849;SDS011;11591;44.792;10.358;2023-04-24T00:17:15;4.80;;;2.70;;
22849;SDS011;11591;44.792;10.358;2023-04-24T00:19:41;5.40;;;2.95;;
22849;SDS011;11591;44.792;10.358;2023-04-24T00:22:07;5.30;;;2.72;;
22849;SDS011;11591;44.792;10.358;2023-04-24T00:24:32;8.32;;;2.72;;
22849;SDS011;11591;44.792;10.358;2023-04-24T00:26:58;6.57;;;2.92;;
22849;SDS011;11591;44.792;10.358;2023-04-24T00:29:26;5.53;;;2.65;;
22849;SDS011;11591;44.792;10.358;2023-04-24T00:31:51;8.50;;;3.20;;
22849;SDS011;11591;44.792;10.358;2023-04-24T00:34:17;6.03;;;3.10;;
22849;SDS011;11591;44.792;10.358;2023-04-24T00:36:43;9.98;;;3.10;;
22849;SDS011;11591;44.792;10.358;2023-04-24T00:39:09;6.75;;;3.30;;
22849;SDS011;11591;44.792;10.358;2023-04-24T00:41:35;8.23;;;3.05;;
22849;SDS011;11591;44.792;10.358;2023-04-24T00:44:01;9.05;;;3.80;;
22849;SDS011;11591;44.792;10.358;2023-04-24T00:46:27;9.18;;;3.72;;
22849;SDS011;11591;44.792;10.358;2023-04-24T00:48:53;13.52;;;5.35;;
22849;SDS011;11591;44.792;10.358;2023-04-24T00:51:21;10.63;;;3.53;;
22849;SDS011;11591;44.792;10.358;2023-04-24T00:53:49;8.10;;;3.50;;
22849;SDS011;11591;44.792;10.358;2023-04-24T00:56:16;9.45;;;3.65;;
22849;SDS011;11591;44.792;10.358;2023-04-24T00:58:42;6.70;;;3.40;;
22849;SDS011;11591;44.792;10.358;2023-04-24T01:01:09;12.40;;;3.85;;
22849;SDS011;11591;44.792;10.358;2023-04-24T01:03:36;8.05;;;3.30;;
22849;SDS011;11591;44.792;10.358;2023-04-24T01:06:03;11.32;;;3.70;;
22849;SDS011;11591;44.792;10.358;2023-04-24T01:08:30;5.68;;;3.80;;
22849;SDS011;11591;44.792;10.358;2023-04-24T01:10:56;9.15;;;3.72;;
22849;SDS011;11591;44.792;10.358;2023-04-24T01:13:23;6.60;;;4.18;;
22849;SDS011;11591;44.792;10.358;2023-04-24T01:15:49;6.78;;;4.25;;
22849;SDS011;11591;44.792;10.358;2023-04-24T01:18:15;12.32;;;4.38;;
22849;SDS011;11591;44.792;10.358;2023-04-24T01:20:41;8.88;;;4.10;;
22849;SDS011;11591;44.792;10.358;2023-04-24T01:23:10;12.05;;;5.18;;
22849;SDS011;11591;44.792;10.358;2023-04-24T01:25:36;11.85;;;5.40;;
22849;SDS011;11591;44.792;10.358;2023-04-24T01:28:02;11.73;;;5.00;;
22849;SDS011;11591;44.792;10.358;2023-04-24T01:30:30;13.90;;;5.28;;
22849;SDS011;11591;44.792;10.358;2023-04-24T01:32:56;9.95;;;5.20;;
22849;SDS011;11591;44.792;10.358;2023-04-24T01:35:24;9.45;;;5.35;;
22849;SDS011;11591;44.792;10.358;2023-04-24T01:37:50;11.70;;;5.65;;
22849;SDS011;11591;44.792;10.358;2023-04-24T01:40:16;8.25;;;5.22;;
22849;SDS011;11591;44.792;10.358;2023-04-24T01:42:42;9.95;;;5.32;;
22849;SDS011;11591;44.792;10.358;2023-04-24T01:45:09;9.02;;;4.85;;
22849;SDS011;11591;44.792;10.358;2023-04-24T01:47:37;9.30;;;5.78;;
22849;SDS011;11591;44.792;10.358;2023-04-24T01:50:03;14.07;;;6.10;;
22849;SDS011;11591;44.792;10.358;2023-04-24T01:52:31;8.48;;;5.65;;
22849;SDS011;11591;44.792;10.358;2023-04-24T01:55:01;13.50;;;6.55;;
22849;SDS011;11591;44.792;10.358;2023-04-24T01:57:29;10.00;;;5.60;;
22849;SDS011;11591;44.792;10.358;2023-04-24T01:59:56;9.60;;;5.80;;
22849;SDS011;11591;44.792;10.358;2023-04-24T02:02:22;13.85;;;6.43;;
22849;SDS011;11591;44.792;10.358;2023-04-24T02:04:49;15.18;;;6.25;;
22849;SDS011;11591;44.792;10.358;2023-04-24T02:07:16;11.80;;;5.88;;
22849;SDS011;11591;44.792;10.358;2023-04-24T02:09:41;10.98;;;6.28;;
22849;SDS011;11591;44.792;10.358;2023-04-24T02:12:07;11.40;;;6.15;;
22849;SDS011;11591;44.792;10.358;2023-04-24T02:14:33;7.72;;;5.97;;
22849;SDS011;11591;44.792;10.358;2023-04-24T02:16:59;11.98;;;5.78;;
22849;SDS011;11591;44.792;10.358;2023-04-24T02:19:25;14.18;;;6.22;;
22849;SDS011;11591;44.792;10.358;2023-04-24T02:21:51;15.68;;;6.88;;
22849;SDS011;11591;44.792;10.358;2023-04-24T02:24:17;10.95;;;6.13;;
22849;SDS011;11591;44.792;10.358;2023-04-24T02:26:43;9.27;;;5.72;;
22849;SDS011;11591;44.792;10.358;2023-04-24T02:29:08;10.13;;;5.95;;
22849;SDS011;11591;44.792;10.358;2023-04-24T02:31:34;8.98;;;5.95;;
22849;SDS011;11591;44.792;10.358;2023-04-24T02:34:00;10.13;;;5.90;;
22849;SDS011;11591;44.792;10.358;2023-04-24T02:36:26;10.65;;;6.22;;
22849;SDS011;11591;44.792;10.358;2023-04-24T02:38:52;11.02;;;6.82;;
22849;SDS011;11591;44.792;10.358;2023-04-24T02:41:17;11.10;;;6.40;;
22849;SDS011;11591;44.792;10.358;2023-04-24T02:43:43;11.85;;;6.95;;
22849;SDS011;11591;44.792;10.358;2023-04-24T02:46:09;9.40;;;6.05;;
22849;SDS011;11591;44.792;10.358;2023-04-24T02:48:35;10.00;;;6.25;;
22849;SDS011;11591;44.792;10.358;2023-04-24T02:51:01;9.82;;;6.43;;
22849;SDS011;11591;44.792;10.358;2023-04-24T02:53:27;15.32;;;6.25;;
22849;SDS011;11591;44.792;10.358;2023-04-24T02:55:54;12.25;;;6.85;;
22849;SDS011;11591;44.792;10.358;2023-04-24T02:58:20;12.15;;;6.85;;
22849;SDS011;11591;44.792;10.358;2023-04-24T03:00:46;9.15;;;6.22;;
22849;SDS011;11591;44.792;10.358;2023-04-24T03:03:12;10.90;;;6.80;;
22849;SDS011;11591;44.792;10.358;2023-04-24T03:05:39;12.60;;;6.80;;
22849;SDS011;11591;44.792;10.358;2023-04-24T03:08:05;11.50;;;6.53;;
22849;SDS011;11591;44.792;10.358;2023-04-24T03:10:31;10.82;;;6.28;;
22849;SDS011;11591;44.792;10.358;2023-04-24T03:12:57;11.98;;;6.85;;
22849;SDS011;11591;44.792;10.358;2023-04-24T03:15:23;12.95;;;6.40;;
22849;SDS011;11591;44.792;10.358;2023-04-24T03:17:48;12.85;;;5.97;;
22849;SDS011;11591;44.792;10.358;2023-04-24T03:20:14;13.52;;;6.93;;
22849;SDS011;11591;44.792;10.358;2023-04-24T03:22:41;10.57;;;6.07;;
22849;SDS011;11591;44.792;10.358;2023-04-24T03:25:07;11.77;;;6.55;;
22849;SDS011;11591;44.792;10.358;2023-04-24T03:27:34;8.82;;;5.60;;
22849;SDS011;11591;44.792;10.358;2023-04-24T03:30:05;12.10;;;6.57;;
22849;SDS011;11591;44.792;10.358;2023-04-24T03:32:40;15.77;;;6.80;;
22849;SDS011;11591;44.792;10.358;2023-04-24T03:35:10;12.27;;;6.50;;
22849;SDS011;11591;44.792;10.358;2023-04-24T03:37:36;13.00;;;6.00;;
22849;SDS011;11591;44.792;10.358;2023-04-24T03:40:34;9.82;;;6.13;;
22849;SDS011;11591;44.792;10.358;2023-04-24T03:43:04;11.88;;;6.80;;
22849;SDS011;11591;44.792;10.358;2023-04-24T03:45:30;9.85;;;6.00;;
22849;SDS011;11591;44.792;10.358;2023-04-24T03:47:56;10.15;;;6.53;;
22849;SDS011;11591;44.792;10.358;2023-04-24T03:50:22;10.27;;;6.43;;
22849;SDS011;11591;44.792;10.358;2023-04-24T03:52:48;10.90;;;6.55;;
22849;SDS011;11591;44.792;10.358;2023-04-24T03:55:24;12.43;;;7.13;;
22849;SDS011;11591;44.792;10.358;2023-04-24T03:57:50;11.95;;;6.68;;
22849;SDS011;11591;44.792;10.358;2023-04-24T04:00:20;12.95;;;7.50;;
22849;SDS011;11591;44.792;10.358;2023-04-24T04:02:52;14.93;;;7.45;;
22849;SDS011;11591;44.792;10.358;2023-04-24T04:05:18;12.90;;;7.88;;
22849;SDS011;11591;44.792;10.358;2023-04-24T04:07:44;15.73;;;8.20;;
22849;SDS011;11591;44.792;10.358;2023-04-24T04:10:10;13.70;;;8.70;;
22849;SDS011;11591;44.792;10.358;2023-04-24T04:12:36;15.00;;;8.80;;
22849;SDS011;11591;44.792;10.358;2023-04-24T04:15:02;14.40;;;9.20;;
22849;SDS011;11591;44.792;10.358;2023-04-24T04:17:29;17.75;;;9.02;;
22849;SDS011;11591;44.792;10.358;2023-04-24T04:19:56;19.73;;;10.25;;
22849;SDS011;11591;44.792;10.358;2023-04-24T04:22:22;17.48;;;9.57;;
22849;SDS011;11591;44.792;10.358;2023-04-24T04:24:50;14.73;;;9.10;;
22849;SDS011;11591;44.792;10.358;2023-04-24T04:27:19;16.70;;;8.98;;
22849;SDS011;11591;44.792;10.358;2023-04-24T04:30:01;14.40;;;8.90;;
22849;SDS011;11591;44.792;10.358;2023-04-24T04:32:33;14.77;;;9.10;;
22849;SDS011;11591;44.792;10.358;2023-04-24T04:35:00;18.27;;;9.63;;
22849;SDS011;11591;44.792;10.358;2023-04-24T04:37:32;18.63;;;10.50;;
22849;SDS011;11591;44.792;10.358;2023-04-24T04:40:09;14.60;;;9.35;;
22849;SDS011;11591;44.792;10.358;2023-04-24T04:42:42;17.30;;;9.52;;
22849;SDS011;11591;44.792;10.358;2023-04-24T04:45:12;20.55;;;10.73;;
22849;SDS011;11591;44.792;10.358;2023-04-24T04:47:53;18.38;;;9.18;;
22849;SDS011;11591;44.792;10.358;2023-04-24T04:50:20;17.08;;;9.65;;
22849;SDS011;11591;44.792;10.358;2023-04-24T04:52:48;20.65;;;9.60;;
22849;SDS011;11591;44.792;10.358;2023-04-24T04:55:21;16.60;;;9.63;;
22849;SDS011;11591;44.792;10.358;2023-04-24T04:58:19;15.75;;;9.45;;
22849;SDS011;11591;44.792;10.358;2023-04-24T05:00:49;15.32;;;10.13;;
22849;SDS011;11591;44.792;10.358;2023-04-24T05:03:26;16.15;;;8.73;;
22849;SDS011;11591;44.792;10.358;2023-04-24T05:05:58;15.25;;;8.93;;
22849;SDS011;11591;44.792;10.358;2023-04-24T05:08:26;16.30;;;9.35;;
22849;SDS011;11591;44.792;10.358;2023-04-24T05:10:52;15.13;;;8.73;;
22849;SDS011;11591;44.792;10.358;2023-04-24T05:13:18;16.33;;;8.98;;
22849;SDS011;11591;44.792;10.358;2023-04-24T05:15:43;16.13;;;8.68;;
22849;SDS011;11591;44.792;10.358;2023-04-24T05:18:09;15.70;;;9.60;;
22849;SDS011;11591;44.792;10.358;2023-04-24T05:20:36;18.83;;;10.00;;
22849;SDS011;11591;44.792;10.358;2023-04-24T05:23:02;16.38;;;8.68;;
22849;SDS011;11591;44.792;10.358;2023-04-24T05:25:29;19.33;;;9.75;;
22849;SDS011;11591;44.792;10.358;2023-04-24T05:28:04;15.02;;;8.75;;
22849;SDS011;11591;44.792;10.358;2023-04-24T05:30:31;14.82;;;9.02;;
22849;SDS011;11591;44.792;10.358;2023-04-24T05:32:57;17.33;;;8.93;;
22849;SDS011;11591;44.792;10.358;2023-04-24T05:35:23;17.05;;;9.23;;
22849;SDS011;11591;44.792;10.358;2023-04-24T05:37:49;18.95;;;9.45;;
22849;SDS011;11591;44.792;10.358;2023-04-24T05:40:16;17.95;;;9.93;;
22849;SDS011;11591;44.792;10.358;2023-04-24T05:42:42;20.48;;;9.63;;
22849;SDS011;11591;44.792;10.358;2023-04-24T05:45:07;17.92;;;10.05;;
22849;SDS011;11591;44.792;10.358;2023-04-24T05:47:36;17.33;;;10.35;;
22849;SDS011;11591;44.792;10.358;2023-04-24T05:50:02;23.80;;;11.13;;
22849;SDS011;11591;44.792;10.358;2023-04-24T05:52:28;18.77;;;10.15;;
22849;SDS011;11591;44.792;10.358;2023-04-24T05:54:54;20.30;;;10.30;;
22849;SDS011;11591;44.792;10.358;2023-04-24T05:57:23;26.30;;;13.57;;
22849;SDS011;11591;44.792;10.358;2023-04-24T05:59:57;20.13;;;10.70;;
22849;SDS011;11591;44.792;10.358;2023-04-24T06:02:24;19.17;;;11.07;;
22849;SDS011;11591;44.792;10.358;2023-04-24T06:04:50;17.10;;;11.27;;
22849;SDS011;11591;44.792;10.358;2023-04-24T06:07:17;22.42;;;12.05;;
22849;SDS011;11591;44.792;10.358;2023-04-24T06:09:43;21.08;;;10.68;;
22849;SDS011;11591;44.792;10.358;2023-04-24T06:12:10;17.48;;;10.75;;
22849;SDS011;11591;44.792;10.358;2023-04-24T06:14:53;20.02;;;10.85;;
22849;SDS011;11591;44.792;10.358;2023-04-24T06:17:25;20.80;;;10.85;;
22849;SDS011;11591;44.792;10.358;2023-04-24T06:19:51;24.60;;;11.95;;
22849;SDS011;11591;44.792;10.358;2023-04-24T06:22:18;20.48;;;11.50;;
22849;SDS011;11591;44.792;10.358;2023-04-24T06:24:45;22.23;;;11.90;;
22849;SDS011;11591;44.792;10.358;2023-04-24T06:27:13;20.52;;;11.77;;
22849;SDS011;11591;44.792;10.358;2023-04-24T06:29:40;16.58;;;11.02;;
22849;SDS011;11591;44.792;10.358;2023-04-24T06:32:05;20.90;;;12.18;;
22849;SDS011;11591;44.792;10.358;2023-04-24T06:34:31;20.33;;;11.43;;
22849;SDS011;11591;44.792;10.358;2023-04-24T06:36:59;27.05;;;11.43;;
22849;SDS011;11591;44.792;10.358;2023-04-24T06:39:25;19.45;;;11.10;;
22849;SDS011;11591;44.792;10.358;2023-04-24T06:41:51;27.77;;;12.05;;
22849;SDS011;11591;44.792;10.358;2023-04-24T06:44:19;22.13;;;11.90;;
22849;SDS011;11591;44.792;10.358;2023-04-24T06:46:45;17.63;;;11.27;;
22849;SDS011;11591;44.792;10.358;2023-04-24T06:49:11;21.20;;;11.25;;
22849;SDS011;11591;44.792;10.358;2023-04-24T06:51:36;20.88;;;12.10;;
22849;SDS011;11591;44.792;10.358;2023-04-24T06:54:02;22.27;;;11.75;;
22849;SDS011;11591;44.792;10.358;2023-04-24T06:56:28;23.83;;;12.57;;
22849;SDS011;11591;44.792;10.358;2023-04-24T06:58:56;20.80;;;11.55;;
22849;SDS011;11591;44.792;10.358;2023-04-24T07:01:22;19.98;;;11.02;;
22849;SDS011;11591;44.792;10.358;2023-04-24T07:03:48;16.17;;;10.55;;
22849;SDS011;11591;44.792;10.358;2023-04-24T07:06:13;16.48;;;10.13;;
22849;SDS011;11591;44.792;10.358;2023-04-24T07:08:41;15.27;;;8.27;;
22849;SDS011;11591;44.792;10.358;2023-04-24T07:11:07;15.18;;;9.05;;
22849;SDS011;11591;44.792;10.358;2023-04-24T07:13:32;19.83;;;10.57;;
22849;SDS011;11591;44.792;10.358;2023-04-24T07:16:00;20.75;;;11.80;;
22849;SDS011;11591;44.792;10.358;2023-04-24T07:18:26;56.42;;;32.92;;
22849;SDS011;11591;44.792;10.358;2023-04-24T07:20:51;21.15;;;13.00;;
22849;SDS011;11591;44.792;10.358;2023-04-24T07:23:17;17.17;;;9.73;;
22849;SDS011;11591;44.792;10.358;2023-04-24T07:25:44;19.92;;;9.98;;
22849;SDS011;11591;44.792;10.358;2023-04-24T07:28:10;18.33;;;8.93;;
22849;SDS011;11591;44.792;10.358;2023-04-24T07:30:36;15.70;;;8.43;;
22849;SDS011;11591;44.792;10.358;2023-04-24T07:33:02;14.15;;;8.55;;
22849;SDS011;11591;44.792;10.358;2023-04-24T07:35:27;16.15;;;8.85;;
22849;SDS011;11591;44.792;10.358;2023-04-24T07:37:53;14.15;;;8.55;;
22849;SDS011;11591;44.792;10.358;2023-04-24T07:40:19;11.77;;;7.47;;
22849;SDS011;11591;44.792;10.358;2023-04-24T07:42:46;15.02;;;8.77;;
22849;SDS011;11591;44.792;10.358;2023-04-24T07:45:13;13.48;;;8.25;;
22849;SDS011;11591;44.792;10.358;2023-04-24T07:47:41;17.05;;;8.55;;
22849;SDS011;11591;44.792;10.358;2023-04-24T07:50:09;17.77;;;8.68;;
22849;SDS011;11591;44.792;10.358;2023-04-24T07:52:35;14.93;;;7.72;;
22849;SDS011;11591;44.792;10.358;2023-04-24T07:55:01;14.35;;;8.23;;
22849;SDS011;11591;44.792;10.358;2023-04-24T07:57:27;13.15;;;7.43;;
22849;SDS011;11591;44.792;10.358;2023-04-24T07:59:53;14.43;;;7.80;;
22849;SDS011;11591;44.792;10.358;2023-04-24T08:02:19;15.75;;;7.93;;
22849;SDS011;11591;44.792;10.358;2023-04-24T08:04:51;14.80;;;7.70;;
22849;SDS011;11591;44.792;10.358;2023-04-24T08:07:20;13.82;;;7.43;;
22849;SDS011;11591;44.792;10.358;2023-04-24T08:09:46;12.95;;;7.07;;
22849;SDS011;11591;44.792;10.358;2023-04-24T08:12:12;12.65;;;7.63;;
22849;SDS011;11591;44.792;10.358;2023-04-24T08:14:37;12.80;;;8.10;;
22849;SDS011;11591;44.792;10.358;2023-04-24T08:17:03;13.25;;;7.25;;
22849;SDS011;11591;44.792;10.358;2023-04-24T08:19:29;13.68;;;6.75;;
22849;SDS011;11591;44.792;10.358;2023-04-24T08:21:55;9.02;;;6.10;;
22849;SDS011;11591;44.792;10.358;2023-04-24T08:24:21;13.18;;;6.45;;
22849;SDS011;11591;44.792;10.358;2023-04-24T08:26:48;11.93;;;6.30;;
22849;SDS011;11591;44.792;10.358;2023-04-24T08:29:19;11.45;;;6.88;;
22849;SDS011;11591;44.792;10.358;2023-04-24T08:31:45;15.00;;;6.28;;
22849;SDS011;11591;44.792;10.358;2023-04-24T08:34:11;14.20;;;5.35;;
22849;SDS011;11591;44.792;10.358;2023-04-24T08:36:37;9.43;;;5.40;;
22849;SDS011;11591;44.792;10.358;2023-04-24T08:39:03;20.92;;;7.95;;
22849;SDS011;11591;44.792;10.358;2023-04-24T08:41:29;14.15;;;5.68;;
22849;SDS011;11591;44.792;10.358;2023-04-24T08:43:55;11.55;;;6.10;;
22849;SDS011;11591;44.792;10.358;2023-04-24T08:46:24;11.05;;;5.68;;
22849;SDS011;11591;44.792;10.358;2023-04-24T08:48:50;9.20;;;5.65;;
22849;SDS011;11591;44.792;10.358;2023-04-24T08:51:17;11.30;;;5.65;;
22849;SDS011;11591;44.792;10.358;2023-04-24T08:53:43;11.15;;;6.13;;
22849;SDS011;11591;44.792;10.358;2023-04-24T08:56:11;12.25;;;6.25;;
22849;SDS011;11591;44.792;10.358;2023-04-24T08:58:38;11.73;;;6.20;;
22849;SDS011;11591;44.792;10.358;2023-04-24T09:01:04;7.78;;;6.40;;
22849;SDS011;11591;44.792;10.358;2023-04-24T09:03:31;14.70;;;5.90;;
22849;SDS011;11591;44.792;10.358;2023-04-24T09:05:58;13.93;;;7.05;;
22849;SDS011;11591;44.792;10.358;2023-04-24T09:08:25;10.65;;;6.32;;
22849;SDS011;11591;44.792;10.358;2023-04-24T09:10:52;12.40;;;7.05;;
22849;SDS011;11591;44.792;10.358;2023-04-24T09:13:19;11.23;;;6.50;;
22849;SDS011;11591;44.792;10.358;2023-04-24T09:15:45;11.38;;;6.78;;
22849;SDS011;11591;44.792;10.358;2023-04-24T09:18:11;11.02;;;6.50;;
22849;SDS011;11591;44.792;10.358;2023-04-24T09:23:26;12.27;;;6.88;;
22849;SDS011;11591;44.792;10.358;2023-04-24T09:25:56;14.35;;;7.57;;
22849;SDS011;11591;44.792;10.358;2023-04-24T09:28:39;12.00;;;6.90;;
22849;SDS011;11591;44.792;10.358;2023-04-24T09:31:06;15.20;;;7.95;;
22849;SDS011;11591;44.792;10.358;2023-04-24T09:33:34;16.02;;;7.20;;
22849;SDS011;11591;44.792;10.358;2023-04-24T09:36:00;11.70;;;7.97;;
22849;SDS011;11591;44.792;10.358;2023-04-24T09:38:30;19.20;;;7.95;;
22849;SDS011;11591;44.792;10.358;2023-04-24T09:41:00;16.38;;;8.45;;
22849;SDS011;11591;44.792;10.358;2023-04-24T09:43:30;12.55;;;7.00;;
22849;SDS011;11591;44.792;10.358;2023-04-24T09:45:57;13.88;;;6.68;;
22849;SDS011;11591;44.792;10.358;2023-04-24T09:48:33;13.85;;;6.03;;
22849;SDS011;11591;44.792;10.358;2023-04-24T09:51:01;9.45;;;4.55;;
22849;SDS011;11591;44.792;10.358;2023-04-24T09:53:29;8.13;;;4.15;;
22849;SDS011;11591;44.792;10.358;2023-04-24T09:56:01;7.03;;;5.00;;
22849;SDS011;11591;44.792;10.358;2023-04-24T09:58:28;9.35;;;4.45;;
22849;SDS011;11591;44.792;10.358;2023-04-24T10:00:55;7.78;;;5.10;;
22849;SDS011;11591;44.792;10.358;2023-04-24T10:03:25;10.95;;;4.80;;
22849;SDS011;11591;44.792;10.358;2023-04-24T10:05:52;9.27;;;5.55;;
22849;SDS011;11591;44.792;10.358;2023-04-24T10:08:18;8.57;;;5.57;;
22849;SDS011;11591;44.792;10.358;2023-04-24T10:10:45;9.18;;;5.85;;
22849;SDS011;11591;44.792;10.358;2023-04-24T10:13:12;16.30;;;7.38;;
22849;SDS011;11591;44.792;10.358;2023-04-24T10:15:40;10.65;;;5.90;;
22849;SDS011;11591;44.792;10.358;2023-04-24T10:18:07;11.70;;;6.57;;
22849;SDS011;11591;44.792;10.358;2023-04-24T10:20:34;10.75;;;6.72;;
22849;SDS011;11591;44.792;10.358;2023-04-24T10:23:02;9.85;;;6.18;;
22849;SDS011;11591;44.792;10.358;2023-04-24T10:25:33;11.30;;;7.13;;
22849;SDS011;11591;44.792;10.358;2023-04-24T10:28:00;11.00;;;6.88;;
22849;SDS011;11591;44.792;10.358;2023-04-24T10:30:28;9.18;;;5.75;;
22849;SDS011;11591;44.792;10.358;2023-04-24T10:32:55;10.35;;;7.22;;
22849;SDS011;11591;44.792;10.358;2023-04-24T10:35:21;12.65;;;7.72;;
22849;SDS011;11591;44.792;10.358;2023-04-24T10:40:34;7.45;;;5.80;;
22849;SDS011;11591;44.792;10.358;2023-04-24T10:43:07;11.70;;;7.88;;
22849;SDS011;11591;44.792;10.358;2023-04-24T10:45:36;8.30;;;6.25;;
22849;SDS011;11591;44.792;10.358;2023-04-24T10:48:03;8.77;;;5.30;;
22849;SDS011;11591;44.792;10.358;2023-04-24T10:50:42;8.82;;;5.38;;
22849;SDS011;11591;44.792;10.358;2023-04-24T10:53:13;9.25;;;5.53;;
22849;SDS011;11591;44.792;10.358;2023-04-24T10:58:11;9.60;;;7.22;;
22849;SDS011;11591;44.792;10.358;2023-04-24T11:00:38;11.60;;;7.10;;
22849;SDS011;11591;44.792;10.358;2023-04-24T11:03:22;10.95;;;7.82;;
22849;SDS011;11591;44.792;10.358;2023-04-24T11:05:55;11.55;;;7.40;;
22849;SDS011;11591;44.792;10.358;2023-04-24T11:08:26;10.32;;;6.70;;
22849;SDS011;11591;44.792;10.358;2023-04-24T11:11:03;11.68;;;7.53;;
22849;SDS011;11591;44.792;10.358;2023-04-24T11:16:35;9.88;;;6.70;;
22849;SDS011;11591;44.792;10.358;2023-04-24T11:21:44;9.23;;;6.18;;
22849;SDS011;11591;44.792;10.358;2023-04-24T11:24:31;11.60;;;7.57;;
22849;SDS011;11591;44.792;10.358;2023-04-24T11:34:57;9.20;;;6.68;;
22849;SDS011;11591;44.792;10.358;2023-04-24T11:37:23;13.82;;;6.63;;
22849;SDS011;11591;44.792;10.358;2023-04-24T11:39:56;9.48;;;6.63;;
22849;SDS011;11591;44.792;10.358;2023-04-24T11:42:23;8.50;;;6.40;;
22849;SDS011;11591;44.792;10.358;2023-04-24T11:44:53;10.32;;;7.45;;
22849;SDS011;11591;44.792;10.358;2023-04-24T11:47:30;9.50;;;7.00;;
22849;SDS011;11591;44.792;10.358;2023-04-24T11:49:58;10.05;;;6.30;;
22849;SDS011;11591;44.792;10.358;2023-04-24T11:52:25;11.00;;;6.60;;
22849;SDS011;11591;44.792;10.358;2023-04-24T11:54:53;8.82;;;6.45;;
22849;SDS011;11591;44.792;10.358;2023-04-24T11:57:20;9.93;;;6.47;;
22849;SDS011;11591;44.792;10.358;2023-04-24T11:59:47;10.13;;;6.05;;
22849;SDS011;11591;44.792;10.358;2023-04-24T12:04:48;11.55;;;5.82;;
22849;SDS011;11591;44.792;10.358;2023-04-24T12:07:14;7.13;;;5.40;;
22849;SDS011;11591;44.792;10.358;2023-04-24T12:09:40;7.75;;;5.30;;
22849;SDS011;11591;44.792;10.358;2023-04-24T12:12:11;10.60;;;6.60;;
22849;SDS011;11591;44.792;10.358;2023-04-24T12:17:12;14.73;;;9.27;;
22849;SDS011;11591;44.792;10.358;2023-04-24T12:19:38;8.52;;;6.15;;
22849;SDS011;11591;44.792;10.358;2023-04-24T12:22:09;7.18;;;5.75;;
22849;SDS011;11591;44.792;10.358;2023-04-24T12:24:35;8.02;;;5.60;;
22849;SDS011;11591;44.792;10.358;2023-04-24T12:27:21;22.13;;;14.60;;
22849;SDS011;11591;44.792;10.358;2023-04-24T12:29:56;9.07;;;6.40;;
22849;SDS011;11591;44.792;10.358;2023-04-24T12:32:24;10.02;;;6.85;;
22849;SDS011;11591;44.792;10.358;2023-04-24T12:34:50;8.15;;;5.70;;
22849;SDS011;11591;44.792;10.358;2023-04-24T12:37:17;7.97;;;5.75;;
22849;SDS011;11591;44.792;10.358;2023-04-24T12:39:58;7.72;;;5.78;;
22849;SDS011;11591;44.792;10.358;2023-04-24T12:42:29;10.48;;;6.05;;
22849;SDS011;11591;44.792;10.358;2023-04-24T12:44:56;8.77;;;5.65;;
22849;SDS011;11591;44.792;10.358;2023-04-24T12:47:24;7.93;;;5.80;;
22849;SDS011;11591;44.792;10.358;2023-04-24T12:49:50;8.70;;;6.25;;
22849;SDS011;11591;44.792;10.358;2023-04-24T12:52:17;9.10;;;6.43;;
22849;SDS011;11591;44.792;10.358;2023-04-24T12:54:49;10.13;;;5.93;;
22849;SDS011;11591;44.792;10.358;2023-04-24T12:57:17;7.57;;;6.10;;
22849;SDS011;11591;44.792;10.358;2023-04-24T12:59:47;8.40;;;5.95;;
22849;SDS011;11591;44.792;10.358;2023-04-24T13:02:12;11.55;;;5.72;;
22849;SDS011;11591;44.792;10.358;2023-04-24T13:04:41;6.47;;;5.10;;
22849;SDS011;11591;44.792;10.358;2023-04-24T13:07:06;6.88;;;5.13;;
22849;SDS011;11591;44.792;10.358;2023-04-24T13:09:33;6.30;;;4.78;;
22849;SDS011;11591;44.792;10.358;2023-04-24T13:12:04;7.95;;;5.68;;
22849;SDS011;11591;44.792;10.358;2023-04-24T13:14:31;7.55;;;5.05;;
22849;SDS011;11591;44.792;10.358;2023-04-24T13:16:58;5.40;;;4.03;;
22849;SDS011;11591;44.792;10.358;2023-04-24T13:19:25;6.93;;;4.53;;
22849;SDS011;11591;44.792;10.358;2023-04-24T13:21:51;7.35;;;5.50;;
22849;SDS011;11591;44.792;10.358;2023-04-24T13:24:20;8.13;;;4.70;;
22849;SDS011;11591;44.792;10.358;2023-04-24T13:26:50;6.20;;;5.05;;
22849;SDS011;11591;44.792;10.358;2023-04-24T13:29:16;5.25;;;4.43;;
22849;SDS011;11591;44.792;10.358;2023-04-24T13:31:42;6.25;;;4.00;;
22849;SDS011;11591;44.792;10.358;2023-04-24T13:34:08;5.88;;;4.20;;
22849;SDS011;11591;44.792;10.358;2023-04-24T13:36:39;7.43;;;5.13;;
22849;SDS011;11591;44.792;10.358;2023-04-24T13:39:05;8.77;;;4.75;;
22849;SDS011;11591;44.792;10.358;2023-04-24T13:41:32;6.65;;;4.78;;
22849;SDS011;11591;44.792;10.358;2023-04-24T13:43:58;10.63;;;4.10;;
22849;SDS011;11591;44.792;10.358;2023-04-24T13:46:24;5.40;;;3.80;;
22849;SDS011;11591;44.792;10.358;2023-04-24T13:48:53;5.22;;;3.38;;
22849;SDS011;11591;44.792;10.358;2023-04-24T13:51:22;5.82;;;4.20;;
22849;SDS011;11591;44.792;10.358;2023-04-24T13:53:48;4.53;;;3.35;;
22849;SDS011;11591;44.792;10.358;2023-04-24T13:56:14;7.18;;;3.90;;
22849;SDS011;11591;44.792;10.358;2023-04-24T13:58:43;7.00;;;3.90;;
22849;SDS011;11591;44.792;10.358;2023-04-24T14:01:09;8.93;;;4.93;;
22849;SDS011;11591;44.792;10.358;2023-04-24T14:03:36;5.65;;;4.30;;
22849;SDS011;11591;44.792;10.358;2023-04-24T14:06:03;3.90;;;2.42;;
22849;SDS011;11591;44.792;10.358;2023-04-24T14:08:28;8.38;;;1.90;;
22849;SDS011;11591;44.792;10.358;2023-04-24T14:10:54;2.70;;;2.00;;
22849;SDS011;11591;44.792;10.358;2023-04-24T14:13:21;4.55;;;2.17;;
22849;SDS011;11591;44.792;10.358;2023-04-24T14:15:46;5.65;;;3.65;;
22849;SDS011;11591;44.792;10.358;2023-04-24T14:18:12;3.60;;;2.08;;
22849;SDS011;11591;44.792;10.358;2023-04-24T14:20:38;5.07;;;1.80;;
22849;SDS011;11591;44.792;10.358;2023-04-24T14:23:04;4.43;;;2.22;;
22849;SDS011;11591;44.792;10.358;2023-04-24T14:25:30;4.57;;;2.00;;
22849;SDS011;11591;44.792;10.358;2023-04-24T14:27:56;1.98;;;1.50;;
22849;SDS011;11591;44.792;10.358;2023-04-24T14:30:21;2.15;;;1.60;;
22849;SDS011;11591;44.792;10.358;2023-04-24T14:32:48;4.72;;;1.88;;
22849;SDS011;11591;44.792;10.358;2023-04-24T14:35:14;1.73;;;1.27;;
22849;SDS011;11591;44.792;10.358;2023-04-24T14:37:40;13.85;;;0.88;;
22849;SDS011;11591;44.792;10.358;2023-04-24T14:40:06;0.60;;;0.50;;
22849;SDS011;11591;44.792;10.358;2023-04-24T14:42:33;2.80;;;0.70;;
22849;SDS011;11591;44.792;10.358;2023-04-24T14:44:59;2.75;;;1.80;;
22849;SDS011;11591;44.792;10.358;2023-04-24T14:47:25;4.10;;;1.00;;
22849;SDS011;11591;44.792;10.358;2023-04-24T14:49:51;3.50;;;1.77;;
22849;SDS011;11591;44.792;10.358;2023-04-24T14:52:17;1.35;;;0.90;;
22849;SDS011;11591;44.792;10.358;2023-04-24T14:54:43;1.35;;;0.60;;